createdAt,value
2022-11-19T00:01:24.804Z,-0.50
2022-11-19T00:03:53.196Z,-0.60
2022-11-19T00:06:27.569Z,-0.60
2022-11-19T00:08:55.333Z,-0.70
2022-11-19T00:11:46.634Z,-0.80
2022-11-19T00:14:15.250Z,-0.80
2022-11-19T00:16:43.930Z,-0.90
2022-11-19T00:19:11.236Z,-0.90
2022-11-19T00:21:37.987Z,-0.90
2022-11-19T00:24:05.014Z,-0.90
2022-11-19T00:26:31.598Z,-0.80
2022-11-19T00:28:58.390Z,-0.90
2022-11-19T00:31:25.164Z,-0.90
2022-11-19T00:33:54.109Z,-0.80
2022-11-19T00:36:21.448Z,-0.90
2022-11-19T00:38:48.056Z,-0.90
2022-11-19T00:41:14.667Z,-0.90
2022-11-19T00:43:47.514Z,-0.90
2022-11-19T00:46:15.285Z,-1.00
2022-11-19T00:48:42.697Z,-0.90
2022-11-19T00:51:10.211Z,-0.90
2022-11-19T00:53:37.543Z,-0.90
2022-11-19T00:56:06.940Z,-0.90
2022-11-19T00:58:33.852Z,-0.90
2022-11-19T01:01:00.734Z,-0.90
2022-11-19T01:03:27.800Z,-0.90
2022-11-19T01:05:54.450Z,-0.90
2022-11-19T01:08:21.201Z,-1.00
2022-11-19T01:10:47.822Z,-1.00
2022-11-19T01:13:33.878Z,-1.00
2022-11-19T01:16:01.723Z,-1.00
2022-11-19T01:18:28.871Z,-1.00
2022-11-19T01:20:55.700Z,-1.10
2022-11-19T01:23:22.485Z,-1.10
2022-11-19T01:25:49.971Z,-1.10
2022-11-19T01:28:16.870Z,-1.10
2022-11-19T01:30:45.717Z,-1.10
2022-11-19T01:33:12.822Z,-1.20
2022-11-19T01:35:39.720Z,-1.20
2022-11-19T01:40:47.693Z,-1.20
2022-11-19T01:43:14.419Z,-1.30
2022-11-19T01:45:48.981Z,-1.30
2022-11-19T01:48:18.241Z,-1.40
2022-11-19T01:50:58.881Z,-1.40
2022-11-19T01:53:32.453Z,-1.40
2022-11-19T01:56:04.073Z,-1.40
2022-11-19T01:58:55.097Z,-1.30
2022-11-19T02:01:22.893Z,-1.40
2022-11-19T02:03:51.739Z,-1.40
2022-11-19T02:06:18.810Z,-1.40
2022-11-19T02:08:53.101Z,-1.40
2022-11-19T02:12:06.890Z,-1.50
2022-11-19T02:14:55.412Z,-1.50
2022-11-19T02:17:47.108Z,-1.50
2022-11-19T02:20:33.689Z,-1.50
2022-11-19T02:23:43.200Z,-1.50
2022-11-19T02:26:50.146Z,-1.50
2022-11-19T02:29:33.239Z,-1.60
2022-11-19T02:32:11.632Z,-1.60
2022-11-19T02:35:05.510Z,-1.60
2022-11-19T02:37:41.521Z,-1.60
2022-11-19T02:40:30.084Z,-1.60
2022-11-19T02:43:18.026Z,-1.60
2022-11-19T02:45:53.870Z,-1.70
2022-11-19T02:48:25.132Z,-1.70
2022-11-19T02:51:02.686Z,-1.70
2022-11-19T02:53:29.847Z,-1.70
2022-11-19T02:56:11.880Z,-1.80
2022-11-19T02:59:03.636Z,-1.70
2022-11-19T03:01:50.819Z,-1.70
2022-11-19T03:04:32.785Z,-1.70
2022-11-19T03:07:07.173Z,-1.80
2022-11-19T03:09:50.468Z,-1.80
2022-11-19T03:12:28.717Z,-1.80
2022-11-19T03:15:21.420Z,-1.80
2022-11-19T03:18:02.950Z,-1.80
2022-11-19T03:20:41.332Z,-1.80
2022-11-19T03:23:24.048Z,-1.80
2022-11-19T03:25:56.881Z,-1.80
2022-11-19T03:28:29.132Z,-1.80
2022-11-19T03:30:58.490Z,-1.80
2022-11-19T03:33:29.307Z,-1.90
2022-11-19T03:36:05.449Z,-1.90
2022-11-19T03:38:38.914Z,-1.90
2022-11-19T03:41:07.222Z,-1.90
2022-11-19T03:43:38.524Z,-1.90
2022-11-19T03:46:10.061Z,-2.00
2022-11-19T03:48:38.109Z,-1.90
2022-11-19T03:51:11.553Z,-2.00
2022-11-19T03:53:38.225Z,-2.00
2022-11-19T03:56:09.698Z,-2.10
2022-11-19T03:58:45.181Z,-2.20
2022-11-19T04:01:12.314Z,-2.10
2022-11-19T04:03:39.129Z,-2.10
2022-11-19T04:06:06.734Z,-2.20
2022-11-19T04:08:33.475Z,-2.20
2022-11-19T04:13:25.922Z,-2.30
2022-11-19T04:15:52.520Z,-2.40
2022-11-19T04:18:19.370Z,-2.40
2022-11-19T04:20:46.254Z,-2.40
2022-11-19T04:23:13.016Z,-2.30
2022-11-19T04:25:41.465Z,-2.30
2022-11-19T04:28:08.029Z,-2.40
2022-11-19T04:30:34.677Z,-2.40
2022-11-19T04:33:01.290Z,-2.40
2022-11-19T04:35:28.009Z,-2.40
2022-11-19T04:37:54.743Z,-2.50
2022-11-19T04:40:21.316Z,-2.50
2022-11-19T04:42:47.892Z,-2.60
2022-11-19T04:45:14.533Z,-2.60
2022-11-19T04:47:41.141Z,-2.60
2022-11-19T04:50:08.468Z,-2.50
2022-11-19T04:52:40.633Z,-2.50
2022-11-19T04:55:08.422Z,-2.40
2022-11-19T04:57:35.216Z,-2.40
2022-11-19T05:00:02.047Z,-2.40
2022-11-19T05:02:28.766Z,-2.40
2022-11-19T05:04:55.633Z,-2.30
2022-11-19T05:07:22.354Z,-2.30
2022-11-19T05:09:49.198Z,-2.20
2022-11-19T05:12:16.160Z,-2.10
2022-11-19T05:14:42.850Z,-2.10
2022-11-19T05:17:09.653Z,-2.00
2022-11-19T05:19:36.606Z,-2.00
2022-11-19T05:22:03.532Z,-2.00
2022-11-19T05:24:30.274Z,-1.90
2022-11-19T05:26:57.691Z,-1.80
2022-11-19T05:29:24.308Z,-1.80
2022-11-19T05:31:50.944Z,-1.70
2022-11-19T05:34:17.597Z,-1.70
2022-11-19T05:36:44.486Z,-1.60
2022-11-19T05:39:11.117Z,-1.60
2022-11-19T05:41:38.032Z,-1.60
2022-11-19T05:44:05.110Z,-1.60
2022-11-19T05:46:31.702Z,-1.50
2022-11-19T05:48:58.504Z,-1.50
2022-11-19T05:51:25.146Z,-1.50
2022-11-19T05:53:51.995Z,-1.40
2022-11-19T05:56:18.612Z,-1.40
2022-11-19T05:58:45.326Z,-1.40
2022-11-19T06:01:13.221Z,-1.30
2022-11-19T06:03:40.883Z,-1.20
2022-11-19T06:06:07.735Z,-1.10
2022-11-19T06:08:34.359Z,-1.10
2022-11-19T06:11:06.795Z,-1.10
2022-11-19T06:13:33.564Z,-1.00
2022-11-19T06:16:00.353Z,-1.00
2022-11-19T06:18:27.090Z,-1.00
2022-11-19T06:20:56.308Z,-1.00
2022-11-19T06:23:23.139Z,-0.90
2022-11-19T06:25:53.830Z,-0.90
2022-11-19T06:28:21.420Z,-0.80
2022-11-19T06:30:48.111Z,-0.80
2022-11-19T06:33:15.096Z,-0.80
2022-11-19T06:35:41.813Z,-0.90
2022-11-19T06:38:08.459Z,-0.90
2022-11-19T06:40:35.184Z,-0.90
2022-11-19T06:43:01.871Z,-0.90
2022-11-19T06:45:28.423Z,-0.90
2022-11-19T06:47:55.295Z,-0.90
2022-11-19T06:50:21.901Z,-1.00
2022-11-19T06:52:48.675Z,-0.90
2022-11-19T06:55:16.798Z,-1.00
2022-11-19T06:57:43.568Z,-0.90
2022-11-19T07:00:11.022Z,-0.90
2022-11-19T07:02:38.012Z,-0.80
2022-11-19T07:05:06.089Z,-0.80
2022-11-19T07:07:33.912Z,-0.90
2022-11-19T07:10:01.174Z,-0.80
2022-11-19T07:12:29.067Z,-0.80
2022-11-19T07:14:58.562Z,-0.80
2022-11-19T07:17:29.534Z,-0.80
2022-11-19T07:19:56.247Z,-0.90
2022-11-19T07:22:22.807Z,-0.80
2022-11-19T07:24:49.409Z,-0.80
2022-11-19T07:27:16.550Z,-0.70
2022-11-19T07:29:44.838Z,-0.70
2022-11-19T07:32:11.619Z,-0.80
2022-11-19T07:34:38.723Z,-0.80
2022-11-19T07:37:05.357Z,-0.70
2022-11-19T07:39:31.887Z,-0.80
2022-11-19T07:42:17.000Z,-0.80
2022-11-19T07:44:43.795Z,-0.60
2022-11-19T07:47:10.664Z,-0.60
2022-11-19T07:49:37.303Z,-0.70
2022-11-19T07:52:04.047Z,-0.60
2022-11-19T07:54:32.329Z,-0.50
2022-11-19T07:56:58.931Z,-0.30
2022-11-19T07:59:27.003Z,-0.30
2022-11-19T08:01:56.416Z,-0.30
2022-11-19T08:04:23.157Z,-0.30
2022-11-19T08:06:49.725Z,-0.30
2022-11-19T08:09:16.826Z,-0.30
2022-11-19T08:11:43.806Z,-0.30
2022-11-19T08:14:12.778Z,-0.30
2022-11-19T08:16:58.453Z,-0.30
2022-11-19T08:19:25.216Z,-0.30
2022-11-19T08:21:51.741Z,-0.30
2022-11-19T08:24:20.696Z,-0.20
2022-11-19T08:26:47.743Z,-0.20
2022-11-19T08:29:16.999Z,-0.10
2022-11-19T08:31:47.078Z,-0.10
2022-11-19T08:34:14.598Z,0.00
2022-11-19T08:36:41.393Z,0.00
2022-11-19T08:39:08.502Z,0.10
2022-11-19T08:41:54.249Z,0.20
2022-11-19T08:44:21.671Z,0.20
2022-11-19T08:46:48.499Z,0.20
2022-11-19T08:49:15.302Z,0.30
2022-11-19T08:51:42.014Z,0.40
2022-11-19T08:54:09.288Z,0.40
2022-11-19T08:56:36.329Z,0.50
2022-11-19T08:59:03.572Z,0.50
2022-11-19T09:01:30.994Z,0.50
2022-11-19T09:03:58.032Z,0.40
2022-11-19T09:06:24.756Z,0.50
2022-11-19T09:08:51.515Z,0.50
2022-11-19T09:11:19.899Z,0.50
2022-11-19T09:13:46.883Z,0.70
2022-11-19T09:16:14.562Z,0.70
2022-11-19T09:18:42.274Z,0.80
2022-11-19T09:21:11.365Z,0.90
2022-11-19T09:23:38.847Z,0.90
2022-11-19T09:26:08.861Z,0.90
2022-11-19T09:28:36.218Z,0.90
2022-11-19T09:31:08.023Z,1.00
2022-11-19T09:33:38.210Z,1.00
2022-11-19T09:36:05.586Z,1.00
2022-11-19T09:38:34.790Z,1.00
2022-11-19T09:41:17.369Z,1.10
2022-11-19T09:44:01.803Z,1.20
2022-11-19T09:47:03.687Z,1.30
2022-11-19T09:50:05.232Z,1.40
2022-11-19T09:52:36.013Z,1.40
2022-11-19T09:55:02.879Z,1.40
2022-11-19T09:57:43.307Z,1.60
2022-11-19T10:00:16.066Z,1.60
2022-11-19T10:02:42.794Z,1.70
2022-11-19T10:05:15.468Z,1.90
2022-11-19T10:07:58.018Z,2.00
2022-11-19T10:10:41.226Z,2.10
2022-11-19T10:13:31.689Z,2.10
2022-11-19T10:16:22.540Z,2.20
2022-11-19T10:19:08.956Z,2.30
2022-11-19T10:21:42.025Z,2.30
2022-11-19T10:24:18.210Z,2.30
2022-11-19T10:26:54.171Z,2.40
2022-11-19T10:29:25.886Z,2.50
2022-11-19T10:31:52.784Z,2.50
2022-11-19T10:34:30.615Z,2.60
2022-11-19T10:37:10.961Z,2.80
2022-11-19T10:39:42.250Z,2.90
2022-11-19T10:42:14.531Z,3.00
2022-11-19T10:44:47.272Z,3.00
2022-11-19T10:47:18.727Z,3.00
2022-11-19T10:49:45.813Z,2.90
2022-11-19T10:52:28.327Z,2.80
2022-11-19T10:55:12.351Z,2.90
2022-11-19T10:57:40.421Z,2.90
2022-11-19T11:00:07.784Z,3.00
2022-11-19T11:02:52.734Z,3.00
2022-11-19T11:05:21.404Z,2.90
2022-11-19T11:07:57.932Z,2.90
2022-11-19T11:10:29.143Z,3.00
2022-11-19T11:13:17.905Z,3.10
2022-11-19T11:15:47.376Z,3.20
2022-11-19T11:18:15.157Z,3.30
2022-11-19T11:20:50.360Z,3.40
2022-11-19T11:23:25.028Z,3.60
2022-11-19T11:26:09.002Z,3.60
2022-11-19T11:28:36.519Z,3.80
2022-11-19T11:31:10.657Z,3.90
2022-11-19T11:33:41.248Z,4.00
2022-11-19T11:36:22.122Z,3.90
2022-11-19T11:38:51.655Z,4.10
2022-11-19T11:44:14.568Z,4.30
2022-11-19T11:46:43.232Z,4.30
2022-11-19T11:49:37.321Z,4.20
2022-11-19T11:52:09.552Z,4.20
2022-11-19T11:54:53.600Z,4.20
2022-11-19T11:57:26.747Z,4.20
2022-11-19T11:59:53.525Z,4.40
2022-11-19T12:02:30.861Z,4.60
2022-11-19T12:05:04.905Z,4.50
2022-11-19T12:07:56.440Z,4.60
2022-11-19T12:10:35.634Z,4.90
2022-11-19T12:13:27.483Z,4.70
2022-11-19T12:16:27.940Z,4.60
2022-11-19T12:19:03.779Z,4.50
2022-11-19T12:21:49.320Z,4.60
2022-11-19T12:24:33.986Z,4.60
2022-11-19T12:27:32.175Z,4.70
2022-11-19T12:30:12.036Z,4.80
2022-11-19T12:32:47.643Z,4.70
2022-11-19T12:35:14.347Z,4.80
2022-11-19T12:38:12.072Z,4.80
2022-11-19T12:40:46.074Z,4.80
2022-11-19T12:43:50.371Z,4.80
2022-11-19T12:46:25.223Z,4.80
2022-11-19T12:49:11.011Z,4.80
2022-11-19T12:52:17.522Z,4.90
2022-11-19T12:55:10.483Z,4.80
2022-11-19T12:58:03.112Z,4.80
2022-11-19T13:00:31.054Z,4.80
2022-11-19T13:03:15.005Z,4.90
2022-11-19T13:05:44.460Z,4.80
2022-11-19T13:08:26.118Z,4.70
2022-11-19T13:11:00.003Z,4.70
2022-11-19T13:13:29.668Z,4.70
2022-11-19T13:16:03.557Z,4.80
2022-11-19T13:18:34.823Z,4.80
2022-11-19T13:21:30.173Z,4.80
2022-11-19T13:23:58.332Z,4.70
2022-11-19T13:26:32.067Z,4.60
2022-11-19T13:29:14.921Z,4.70
2022-11-19T13:32:02.284Z,4.80
2022-11-19T13:34:38.603Z,4.90
2022-11-19T13:37:22.871Z,4.80
2022-11-19T13:39:57.197Z,4.80
2022-11-19T13:42:43.346Z,4.80
2022-11-19T13:45:17.987Z,4.80
2022-11-19T13:47:58.410Z,4.90
2022-11-19T13:50:39.019Z,5.00
2022-11-19T13:53:13.283Z,5.20
2022-11-19T13:55:42.431Z,5.30
2022-11-19T13:58:14.911Z,5.30
2022-11-19T14:00:54.631Z,5.10
2022-11-19T14:03:33.223Z,5.00
2022-11-19T14:06:08.097Z,5.00
2022-11-19T14:09:00.648Z,5.10
2022-11-19T14:12:04.426Z,5.10
2022-11-19T14:15:09.319Z,5.10
2022-11-19T14:18:09.898Z,5.10
2022-11-19T14:21:02.312Z,5.20
2022-11-19T14:24:13.642Z,5.20
2022-11-19T14:26:40.181Z,5.30
2022-11-19T14:29:19.055Z,5.10
2022-11-19T14:32:03.406Z,5.10
2022-11-19T14:34:54.400Z,5.10
2022-11-19T14:37:38.091Z,5.00
2022-11-19T14:40:34.232Z,5.00
2022-11-19T14:43:19.613Z,5.00
2022-11-19T14:46:10.533Z,5.00
2022-11-19T14:48:40.248Z,4.90
2022-11-19T14:51:16.660Z,4.90
2022-11-19T14:54:16.256Z,5.00
2022-11-19T14:56:47.343Z,5.00
2022-11-19T14:59:16.791Z,5.00
2022-11-19T15:02:06.747Z,5.00
2022-11-19T15:04:44.378Z,5.10
2022-11-19T15:07:15.006Z,5.00
2022-11-19T15:10:10.296Z,5.00
2022-11-19T15:12:42.700Z,5.00
2022-11-19T15:15:34.030Z,5.10
2022-11-19T15:18:01.918Z,5.10
2022-11-19T15:20:37.465Z,5.10
2022-11-19T15:23:16.441Z,5.00
2022-11-19T15:25:59.346Z,5.00
2022-11-19T15:28:59.622Z,4.90
2022-11-19T15:31:35.787Z,4.80
2022-11-19T15:34:38.602Z,4.80
2022-11-19T15:37:15.336Z,4.80
2022-11-19T15:39:47.701Z,4.80
2022-11-19T15:42:23.369Z,4.80
2022-11-19T15:44:57.453Z,4.80
2022-11-19T15:47:28.754Z,4.70
2022-11-19T15:49:58.446Z,4.70
2022-11-19T15:52:32.041Z,4.60
2022-11-19T15:55:13.156Z,4.70
2022-11-19T15:57:43.890Z,4.70
2022-11-19T16:00:20.138Z,4.60
2022-11-19T16:02:49.762Z,4.70
2022-11-19T16:05:25.879Z,4.60
2022-11-19T16:07:53.661Z,4.50
2022-11-19T16:10:46.172Z,4.40
2022-11-19T16:13:43.639Z,4.40
2022-11-19T16:16:42.631Z,4.30
2022-11-19T16:19:09.217Z,4.30
2022-11-19T16:21:40.240Z,4.30
2022-11-19T16:24:31.797Z,4.30
2022-11-19T16:27:00.888Z,4.30
2022-11-19T16:29:27.766Z,4.20
2022-11-19T16:31:57.859Z,4.20
2022-11-19T16:34:28.322Z,4.20
2022-11-19T16:36:55.763Z,4.10
2022-11-19T16:39:28.107Z,4.00
2022-11-19T16:42:17.196Z,4.00
2022-11-19T16:44:48.401Z,3.90
2022-11-19T16:47:33.089Z,3.80
2022-11-19T16:50:05.578Z,3.80
2022-11-19T16:52:37.447Z,3.80
2022-11-19T16:55:11.469Z,3.80
2022-11-19T16:57:47.217Z,3.90
2022-11-19T17:00:17.820Z,3.80
2022-11-19T17:02:44.787Z,3.80
2022-11-19T17:05:17.160Z,3.80
2022-11-19T17:08:03.760Z,3.80
2022-11-19T17:10:32.136Z,3.70
2022-11-19T17:13:21.799Z,3.70
2022-11-19T17:15:50.187Z,3.80
2022-11-19T17:18:29.005Z,3.80
2022-11-19T17:20:59.569Z,3.80
2022-11-19T17:23:37.021Z,3.80
2022-11-19T17:26:07.198Z,3.90
2022-11-19T17:28:47.566Z,3.90
2022-11-19T17:31:24.247Z,3.80
2022-11-19T17:33:53.803Z,3.80
2022-11-19T17:36:22.163Z,3.80
2022-11-19T17:38:49.425Z,3.80
2022-11-19T17:41:39.581Z,3.80
2022-11-19T17:44:30.629Z,3.80
2022-11-19T17:46:58.131Z,3.80
2022-11-19T17:49:25.009Z,3.70
2022-11-19T17:51:52.381Z,3.80
2022-11-19T17:54:19.644Z,3.70
2022-11-19T17:56:46.757Z,3.70
2022-11-19T17:59:13.492Z,3.70
2022-11-19T18:01:40.285Z,3.70
2022-11-19T18:04:09.525Z,3.60
2022-11-19T18:06:37.446Z,3.70
2022-11-19T18:09:04.876Z,3.70
2022-11-19T18:11:32.280Z,3.60
2022-11-19T18:14:09.881Z,3.70
2022-11-19T18:16:42.703Z,3.60
2022-11-19T18:19:23.826Z,3.60
2022-11-19T18:21:51.198Z,3.60
2022-11-19T18:24:18.011Z,3.60
2022-11-19T18:26:44.910Z,3.60
2022-11-19T18:29:11.943Z,3.70
2022-11-19T18:31:45.998Z,3.60
2022-11-19T18:34:23.341Z,3.50
2022-11-19T18:36:50.304Z,3.40
2022-11-19T18:39:16.975Z,3.50
2022-11-19T18:41:43.905Z,3.50
2022-11-19T18:44:34.763Z,3.40
2022-11-19T18:47:06.811Z,3.40
2022-11-19T18:49:34.641Z,3.40
2022-11-19T18:52:03.100Z,3.40
2022-11-19T18:54:30.827Z,3.30
2022-11-19T18:56:58.044Z,3.30
2022-11-19T18:59:24.695Z,3.40
2022-11-19T19:01:52.252Z,3.30
2022-11-19T19:04:19.266Z,3.30
2022-11-19T19:06:46.192Z,3.20
2022-11-19T19:09:19.485Z,3.30
2022-11-19T19:12:12.318Z,3.20
2022-11-19T19:14:40.211Z,3.20
2022-11-19T19:17:06.943Z,3.20
2022-11-19T19:19:33.574Z,3.20
2022-11-19T19:22:00.442Z,3.20
2022-11-19T19:24:28.856Z,3.20
2022-11-19T19:26:55.486Z,3.30
2022-11-19T19:29:22.475Z,3.20
2022-11-19T19:31:49.549Z,3.30
2022-11-19T19:34:16.995Z,3.30
2022-11-19T19:36:47.664Z,3.30
2022-11-19T19:39:18.762Z,3.30
2022-11-19T19:41:45.667Z,3.30
2022-11-19T19:44:12.330Z,3.30
2022-11-19T19:46:38.993Z,3.30
2022-11-19T19:49:05.936Z,3.30
2022-11-19T19:51:32.779Z,3.20
2022-11-19T19:54:00.226Z,3.20
2022-11-19T19:56:31.673Z,3.10
2022-11-19T19:58:59.305Z,3.10
2022-11-19T20:01:31.796Z,3.10
2022-11-19T20:04:09.909Z,3.10
2022-11-19T20:06:38.918Z,3.10
2022-11-19T20:09:09.251Z,3.10
2022-11-19T20:11:37.236Z,3.20
2022-11-19T20:14:04.205Z,3.10
2022-11-19T20:16:32.329Z,3.10
2022-11-19T20:19:00.319Z,3.00
2022-11-19T20:21:34.143Z,3.00
2022-11-19T20:24:01.305Z,3.10
2022-11-19T20:26:30.464Z,3.00
2022-11-19T20:28:59.271Z,2.90
2022-11-19T20:31:27.058Z,3.00
2022-11-19T20:33:56.919Z,3.00
2022-11-19T20:36:25.225Z,3.10
2022-11-19T20:38:52.281Z,3.00
2022-11-19T20:41:39.187Z,3.00
2022-11-19T20:44:23.068Z,3.00
2022-11-19T20:46:53.857Z,3.00
2022-11-19T20:49:23.624Z,3.00
2022-11-19T20:51:50.948Z,2.90
2022-11-19T20:54:18.265Z,2.90
2022-11-19T20:56:45.272Z,2.80
2022-11-19T20:59:12.777Z,2.80
2022-11-19T21:01:39.500Z,2.80
2022-11-19T21:04:06.244Z,2.80
2022-11-19T21:06:33.595Z,2.80
2022-11-19T21:09:00.719Z,2.80
2022-11-19T21:11:27.571Z,2.70
2022-11-19T21:13:54.428Z,2.70
2022-11-19T21:16:24.016Z,2.70
2022-11-19T21:18:51.196Z,2.80
2022-11-19T21:21:19.982Z,2.80
2022-11-19T21:23:47.075Z,2.80
2022-11-19T21:26:22.145Z,2.80
2022-11-19T21:28:52.077Z,2.80
2022-11-19T21:31:21.609Z,2.80
2022-11-19T21:33:48.278Z,2.80
2022-11-19T21:36:15.527Z,2.80
2022-11-19T21:38:42.122Z,2.70
2022-11-19T21:41:08.904Z,2.80
2022-11-19T21:43:35.557Z,2.80
2022-11-19T21:46:06.586Z,2.90
2022-11-19T21:48:33.276Z,2.90
2022-11-19T21:51:05.362Z,2.80
2022-11-19T21:53:31.934Z,2.70
2022-11-19T21:55:59.017Z,2.60
2022-11-19T21:58:25.771Z,2.60
2022-11-19T22:01:00.915Z,2.70
2022-11-19T22:03:31.393Z,2.70
2022-11-19T22:06:04.044Z,2.80
2022-11-19T22:08:35.977Z,2.80
2022-11-19T22:11:25.460Z,2.70
2022-11-19T22:13:53.009Z,2.50
2022-11-19T22:16:20.366Z,2.50
2022-11-19T22:18:47.424Z,2.50
2022-11-19T22:21:15.698Z,2.40
2022-11-19T22:23:42.337Z,2.50
2022-11-19T22:26:12.390Z,2.50
2022-11-19T22:28:39.912Z,2.50
2022-11-19T22:31:06.690Z,2.50
2022-11-19T22:33:36.079Z,2.50
2022-11-19T22:36:09.738Z,2.60
2022-11-19T22:38:37.702Z,2.60
2022-11-19T22:41:10.039Z,2.60
2022-11-19T22:43:37.927Z,2.60
2022-11-19T22:46:05.227Z,2.60
2022-11-19T22:48:33.496Z,2.60
2022-11-19T22:51:04.456Z,2.60
2022-11-19T22:53:31.084Z,2.50
2022-11-19T22:56:02.070Z,2.50
2022-11-19T22:58:29.673Z,2.60
2022-11-19T23:00:56.641Z,2.50
2022-11-19T23:03:23.545Z,2.50
2022-11-19T23:05:51.548Z,2.60
2022-11-19T23:08:18.683Z,2.60
2022-11-19T23:10:45.914Z,2.50
2022-11-19T23:13:35.519Z,2.50
2022-11-19T23:16:18.365Z,2.50
2022-11-19T23:18:50.625Z,2.50
2022-11-19T23:21:22.461Z,2.50
2022-11-19T23:23:52.199Z,2.60
2022-11-19T23:26:21.950Z,2.60
2022-11-19T23:28:49.080Z,2.60
2022-11-19T23:31:21.113Z,2.50
2022-11-19T23:33:48.732Z,2.40
2022-11-19T23:36:23.063Z,2.40
2022-11-19T23:38:50.070Z,2.40
2022-11-19T23:41:18.672Z,2.40
2022-11-19T23:43:46.551Z,2.50
2022-11-19T23:46:19.034Z,2.50
2022-11-19T23:48:47.193Z,2.50
2022-11-19T23:51:18.925Z,2.50
2022-11-19T23:53:46.330Z,2.40
2022-11-19T23:56:14.279Z,2.40
2022-11-19T23:58:41.726Z,2.40
